PWSweather.com
Personal Weather Stations
Station Observations
METEOC500
Santo Antonio, FunchalPT 2020

Santo AntonioFunchalPT 2020

Lat: 32.678227, Lon: -16.945054

Elevation: 1669.94751

Station Type: WH Series

High Low Average
Temperature 70.7°F21.5°C 60.8°F16.0°C 63.9°F17.7°C
Dew Point 62.4°F16.9°C 54.0°F12.2°C 58.2°F14.6°C
Winds 8.7 mph 14.0 kmh Calm Calm 4.0 mph W6.4 kmh W
Wind Gusts 12.5 mph20.1 kmh -- 8.0 mph12.9 kmh
Humidity 91% 67% 82%
Pressure 30.27 in1025.1 mb 30.17 in1021.7 mb -
Precipitation 0.00 in0.0 mm - -
Hour Temp Dew Point Humidity Winds Wind Gusts Pressure Precip Precip Rate Daily Precip Total
12:12 AM 61.2°F16.2°C 54.9°F12.7°C 80% 4.9 mph NW7.9 kmh NW 10.1 mph16.3 kmh 30.20 in1022.7 mb 0.00 in0.0 mm 0.00 in0.0 mm 0.00 in0.0 mm
12:27 AM 61.3°F16.3°C 55.0°F12.8°C 80% 4.9 mph NNW7.9 kmh NNW 10.1 mph16.3 kmh 30.20 in1022.7 mb 0.00 in0.0 mm 0.00 in0.0 mm 0.00 in0.0 mm
12:42 AM 61.5°F16.4°C 55.2°F12.9°C 80% 6.9 mph NNW11.1 kmh NNW 10.1 mph16.3 kmh 30.20 in1022.7 mb 0.00 in0.0 mm 0.00 in0.0 mm 0.00 in0.0 mm
12:57 AM 61.5°F16.4°C 55.2°F12.9°C 80% 5.4 mph N8.7 kmh N 10.1 mph16.3 kmh 30.21 in1023.0 mb 0.00 in0.0 mm 0.00 in0.0 mm 0.00 in0.0 mm
01:12 AM 61.7°F16.5°C 55.0°F12.8°C 79% 6.9 mph NNW11.1 kmh NNW 10.1 mph16.3 kmh 30.20 in1022.7 mb 0.00 in0.0 mm 0.00 in0.0 mm 0.00 in0.0 mm
01:27 AM 61.7°F16.5°C 55.4°F13.0°C 80% 4.7 mph NNW7.6 kmh NNW 10.1 mph16.3 kmh 30.20 in1022.7 mb 0.00 in0.0 mm 0.00 in0.0 mm 0.00 in0.0 mm
01:42 AM 61.7°F16.5°C 54.9°F12.7°C 78% 7.6 mph NW12.2 kmh NW 10.1 mph16.3 kmh 30.19 in1022.4 mb 0.00 in0.0 mm 0.00 in0.0 mm 0.00 in0.0 mm
01:57 AM 61.7°F16.5°C 55.4°F13.0°C 80% 6.3 mph NW10.1 kmh NW 12.5 mph20.1 kmh 30.20 in1022.7 mb 0.00 in0.0 mm 0.00 in0.0 mm 0.00 in0.0 mm
02:12 AM 61.5°F16.4°C 55.2°F12.9°C 80% 7.6 mph N12.2 kmh N 7.6 mph12.2 kmh 30.19 in1022.4 mb 0.00 in0.0 mm 0.00 in0.0 mm 0.00 in0.0 mm
02:28 AM 61.5°F16.4°C 54.9°F12.7°C 79% 6.3 mph N10.1 kmh N 10.1 mph16.3 kmh 30.19 in1022.4 mb 0.00 in0.0 mm 0.00 in0.0 mm 0.00 in0.0 mm
02:43 AM 61.7°F16.5°C 55.0°F12.8°C 79% 5.4 mph N8.7 kmh N 10.1 mph16.3 kmh 30.19 in1022.4 mb 0.00 in0.0 mm 0.00 in0.0 mm 0.00 in0.0 mm
02:58 AM 61.5°F16.4°C 55.2°F12.9°C 80% 5.4 mph NNW8.7 kmh NNW 10.1 mph16.3 kmh 30.18 in1022.0 mb 0.00 in0.0 mm 0.00 in0.0 mm 0.00 in0.0 mm
03:13 AM 61.3°F16.3°C 54.9°F12.7°C 79% 8.7 mph NNW14.0 kmh NNW 10.1 mph16.3 kmh 30.18 in1022.0 mb 0.00 in0.0 mm 0.00 in0.0 mm 0.00 in0.0 mm
03:28 AM 61.5°F16.4°C 54.9°F12.7°C 79% 6.0 mph NW9.7 kmh NW 12.5 mph20.1 kmh 30.18 in1022.0 mb 0.00 in0.0 mm 0.00 in0.0 mm 0.00 in0.0 mm
03:43 AM 61.3°F16.3°C 54.9°F12.7°C 79% 5.4 mph N8.7 kmh N 10.1 mph16.3 kmh 30.18 in1022.0 mb 0.00 in0.0 mm 0.00 in0.0 mm 0.00 in0.0 mm
03:58 AM 61.3°F16.3°C 54.5°F12.5°C 78% 5.4 mph NNW8.7 kmh NNW 12.5 mph20.1 kmh 30.17 in1021.7 mb 0.00 in0.0 mm 0.00 in0.0 mm 0.00 in0.0 mm
04:13 AM 61.5°F16.4°C 54.7°F12.6°C 78% 4.9 mph N7.9 kmh N 12.5 mph20.1 kmh 30.18 in1022.0 mb 0.00 in0.0 mm 0.00 in0.0 mm 0.00 in0.0 mm
04:28 AM 61.3°F16.3°C 54.5°F12.5°C 78% 6.0 mph NNW9.7 kmh NNW 10.1 mph16.3 kmh 30.18 in1022.0 mb 0.00 in0.0 mm 0.00 in0.0 mm 0.00 in0.0 mm
04:43 AM 61.2°F16.2°C 54.7°F12.6°C 79% 5.6 mph NNW9.0 kmh NNW 10.1 mph16.3 kmh 30.18 in1022.0 mb 0.00 in0.0 mm 0.00 in0.0 mm 0.00 in0.0 mm
04:58 AM 61.0°F16.1°C 54.5°F12.5°C 79% 5.4 mph N8.7 kmh N 10.1 mph16.3 kmh 30.18 in1022.0 mb 0.00 in0.0 mm 0.00 in0.0 mm 0.00 in0.0 mm
05:13 AM 61.0°F16.1°C 54.5°F12.5°C 79% 7.6 mph NNW12.2 kmh NNW 10.1 mph16.3 kmh 30.18 in1022.0 mb 0.00 in0.0 mm 0.00 in0.0 mm 0.00 in0.0 mm
05:28 AM 61.2°F16.2°C 54.3°F12.4°C 78% 8.7 mph N14.0 kmh N 10.1 mph16.3 kmh 30.18 in1022.0 mb 0.00 in0.0 mm 0.00 in0.0 mm 0.00 in0.0 mm
05:43 AM 61.2°F16.2°C 54.7°F12.6°C 79% 6.5 mph NNW10.5 kmh NNW 12.5 mph20.1 kmh 30.19 in1022.4 mb 0.00 in0.0 mm 0.00 in0.0 mm 0.00 in0.0 mm
05:58 AM 61.2°F16.2°C 54.7°F12.6°C 79% 6.0 mph NNW9.7 kmh NNW 10.1 mph16.3 kmh 30.19 in1022.4 mb 0.00 in0.0 mm 0.00 in0.0 mm 0.00 in0.0 mm
06:13 AM 61.0°F16.1°C 54.1°F12.3°C 78% 5.6 mph NNW9.0 kmh NNW 10.1 mph16.3 kmh 30.19 in1022.4 mb 0.00 in0.0 mm 0.00 in0.0 mm 0.00 in0.0 mm
06:28 AM 61.0°F16.1°C 54.5°F12.5°C 79% 4.9 mph NNW7.9 kmh NNW 10.1 mph16.3 kmh 30.19 in1022.4 mb 0.00 in0.0 mm 0.00 in0.0 mm 0.00 in0.0 mm
06:43 AM 60.8°F16.0°C 54.7°F12.6°C 80% 6.3 mph NNW10.1 kmh NNW 10.1 mph16.3 kmh 30.19 in1022.4 mb 0.00 in0.0 mm 0.00 in0.0 mm 0.00 in0.0 mm
06:58 AM 60.8°F16.0°C 54.7°F12.6°C 80% 3.8 mph N6.1 kmh N 10.1 mph16.3 kmh 30.19 in1022.4 mb 0.00 in0.0 mm 0.00 in0.0 mm 0.00 in0.0 mm
07:14 AM 60.8°F16.0°C 54.3°F12.4°C 79% 5.4 mph NNW8.7 kmh NNW 10.1 mph16.3 kmh 30.20 in1022.7 mb 0.00 in0.0 mm 0.00 in0.0 mm 0.00 in0.0 mm
07:29 AM 60.8°F16.0°C 54.7°F12.6°C 80% 6.5 mph NNW10.5 kmh NNW 10.1 mph16.3 kmh 30.20 in1022.7 mb 0.00 in0.0 mm 0.00 in0.0 mm 0.00 in0.0 mm
07:44 AM 61.2°F16.2°C 54.0°F12.2°C 77% 5.4 mph NNW8.7 kmh NNW 12.5 mph20.1 kmh 30.21 in1023.0 mb 0.00 in0.0 mm 0.00 in0.0 mm 0.00 in0.0 mm
07:59 AM 61.9°F16.6°C 54.9°F12.7°C 78% 5.4 mph NNW8.7 kmh NNW 10.1 mph16.3 kmh 30.21 in1023.0 mb 0.00 in0.0 mm 0.00 in0.0 mm 0.00 in0.0 mm
08:14 AM 62.2°F16.8°C 55.2°F12.9°C 78% 6.3 mph N10.1 kmh N 7.6 mph12.2 kmh 30.22 in1023.4 mb 0.00 in0.0 mm 0.00 in0.0 mm 0.00 in0.0 mm
08:29 AM 62.2°F16.8°C 55.6°F13.1°C 79% 7.2 mph N11.6 kmh N 10.1 mph16.3 kmh 30.22 in1023.4 mb 0.00 in0.0 mm 0.00 in0.0 mm 0.00 in0.0 mm
08:44 AM 62.8°F17.1°C 55.4°F13.0°C 77% 2.9 mph N4.7 kmh N 10.1 mph16.3 kmh 30.22 in1023.4 mb 0.00 in0.0 mm 0.00 in0.0 mm 0.00 in0.0 mm
08:59 AM 63.9°F17.7°C 55.8°F13.2°C 75% 1.8 mph N2.9 kmh N 7.6 mph12.2 kmh 30.23 in1023.7 mb 0.00 in0.0 mm 0.00 in0.0 mm 0.00 in0.0 mm
09:14 AM 66.0°F18.9°C 55.2°F12.9°C 68% 1.6 mph S2.6 kmh S 4.9 mph7.9 kmh 30.24 in1024.0 mb 0.00 in0.0 mm 0.00 in0.0 mm 0.00 in0.0 mm
09:29 AM 68.7°F20.4°C 57.7°F14.3°C 68% 1.8 mph SE2.9 kmh SE 7.6 mph12.2 kmh 30.25 in1024.4 mb 0.00 in0.0 mm 0.00 in0.0 mm 0.00 in0.0 mm
09:44 AM 70.0°F21.1°C 58.5°F14.7°C 67% 3.1 mph S5.0 kmh S 7.6 mph12.2 kmh 30.25 in1024.4 mb 0.00 in0.0 mm 0.00 in0.0 mm 0.00 in0.0 mm
09:59 AM 70.5°F21.4°C 60.3°F15.7°C 70% Calm Calm 7.6 mph12.2 kmh 30.26 in1024.7 mb 0.00 in0.0 mm 0.00 in0.0 mm 0.00 in0.0 mm
10:14 AM 70.7°F21.5°C 60.1°F15.6°C 69% 0.2 mph E0.3 kmh E 10.1 mph16.3 kmh 30.26 in1024.7 mb 0.00 in0.0 mm 0.00 in0.0 mm 0.00 in0.0 mm
10:29 AM 70.7°F21.5°C 61.7°F16.5°C 73% 2.5 mph E4.0 kmh E 10.1 mph16.3 kmh 30.27 in1025.1 mb 0.00 in0.0 mm 0.00 in0.0 mm 0.00 in0.0 mm
10:44 AM 69.6°F20.9°C 61.7°F16.5°C 76% 5.4 mph SE8.7 kmh SE 10.1 mph16.3 kmh 30.27 in1025.1 mb 0.00 in0.0 mm 0.00 in0.0 mm 0.00 in0.0 mm
10:59 AM 68.2°F20.1°C 61.3°F16.3°C 79% 0.2 mph S0.3 kmh S 7.6 mph12.2 kmh 30.26 in1024.7 mb 0.00 in0.0 mm 0.00 in0.0 mm 0.00 in0.0 mm
11:14 AM 68.0°F20.0°C 60.4°F15.8°C 77% 4.0 mph SSE6.4 kmh SSE 4.9 mph7.9 kmh 30.26 in1024.7 mb 0.00 in0.0 mm 0.00 in0.0 mm 0.00 in0.0 mm
11:29 AM 68.0°F20.0°C 61.5°F16.4°C 80% 4.0 mph SSE6.4 kmh SSE 10.1 mph16.3 kmh 30.26 in1024.7 mb 0.00 in0.0 mm 0.00 in0.0 mm 0.00 in0.0 mm
11:44 AM 66.9°F19.4°C 61.2°F16.2°C 82% 0.9 mph SSW1.4 kmh SSW 7.6 mph12.2 kmh 30.25 in1024.4 mb 0.00 in0.0 mm 0.00 in0.0 mm 0.00 in0.0 mm
12:00 PM 66.2°F19.0°C 60.8°F16.0°C 83% Calm Calm 4.9 mph7.9 kmh 30.26 in1024.7 mb 0.00 in0.0 mm 0.00 in0.0 mm 0.00 in0.0 mm
12:15 PM 65.8°F18.8°C 60.6°F15.9°C 83% 1.3 mph SE2.1 kmh SE 7.6 mph12.2 kmh 30.25 in1024.4 mb 0.00 in0.0 mm 0.00 in0.0 mm 0.00 in0.0 mm
12:30 PM 66.2°F19.0°C 60.3°F15.7°C 81% 2.5 mph SSE4.0 kmh SSE 7.6 mph12.2 kmh 30.24 in1024.0 mb 0.00 in0.0 mm 0.00 in0.0 mm 0.00 in0.0 mm
12:45 PM 66.9°F19.4°C 61.0°F16.1°C 81% 3.1 mph SSE5.0 kmh SSE 10.1 mph16.3 kmh 30.24 in1024.0 mb 0.00 in0.0 mm 0.00 in0.0 mm 0.00 in0.0 mm
01:00 PM 67.3°F19.6°C 61.5°F16.4°C 82% 0.9 mph SSW1.4 kmh SSW 7.6 mph12.2 kmh 30.24 in1024.0 mb 0.00 in0.0 mm 0.00 in0.0 mm 0.00 in0.0 mm
01:15 PM 67.1°F19.5°C 61.7°F16.5°C 83% 1.3 mph SW2.1 kmh SW 7.6 mph12.2 kmh 30.23 in1023.7 mb 0.00 in0.0 mm 0.00 in0.0 mm 0.00 in0.0 mm
01:30 PM 66.9°F19.4°C 61.9°F16.6°C 84% 1.6 mph SSW2.6 kmh SSW 4.9 mph7.9 kmh 30.23 in1023.7 mb 0.00 in0.0 mm 0.00 in0.0 mm 0.00 in0.0 mm
01:45 PM 66.2°F19.0°C 61.9°F16.6°C 86% 4.5 mph SSE7.2 kmh SSE 7.6 mph12.2 kmh 30.23 in1023.7 mb 0.00 in0.0 mm 0.00 in0.0 mm 0.00 in0.0 mm
02:00 PM 65.5°F18.6°C 61.5°F16.4°C 87% 1.6 mph S2.6 kmh S 10.1 mph16.3 kmh 30.22 in1023.4 mb 0.00 in0.0 mm 0.00 in0.0 mm 0.00 in0.0 mm
02:15 PM 65.3°F18.5°C 61.3°F16.3°C 87% 3.4 mph SSW5.5 kmh SSW 4.9 mph7.9 kmh 30.22 in1023.4 mb 0.00 in0.0 mm 0.00 in0.0 mm 0.00 in0.0 mm
02:30 PM 65.3°F18.5°C 61.0°F16.1°C 86% 3.8 mph SSE6.1 kmh SSE 7.6 mph12.2 kmh 30.21 in1023.0 mb 0.00 in0.0 mm 0.00 in0.0 mm 0.00 in0.0 mm
02:45 PM 65.3°F18.5°C 61.0°F16.1°C 86% Calm Calm 4.9 mph7.9 kmh 30.21 in1023.0 mb 0.00 in0.0 mm 0.00 in0.0 mm 0.00 in0.0 mm
03:00 PM 65.5°F18.6°C 61.2°F16.2°C 86% 1.8 mph ESE2.9 kmh ESE 7.6 mph12.2 kmh 30.20 in1022.7 mb 0.00 in0.0 mm 0.00 in0.0 mm 0.00 in0.0 mm
03:15 PM 65.7°F18.7°C 61.7°F16.5°C 87% 0.9 mph SE1.4 kmh SE 7.6 mph12.2 kmh 30.21 in1023.0 mb 0.00 in0.0 mm 0.00 in0.0 mm 0.00 in0.0 mm
03:30 PM 65.7°F18.7°C 61.7°F16.5°C 87% 1.6 mph S2.6 kmh S 7.6 mph12.2 kmh 30.21 in1023.0 mb 0.00 in0.0 mm 0.00 in0.0 mm 0.00 in0.0 mm
03:45 PM 65.5°F18.6°C 61.9°F16.6°C 88% Calm Calm 7.6 mph12.2 kmh 30.20 in1022.7 mb 0.00 in0.0 mm 0.00 in0.0 mm 0.00 in0.0 mm
04:01 PM 65.5°F18.6°C 61.5°F16.4°C 87% 0.2 mph SE0.3 kmh SE 2.5 mph4.0 kmh 30.21 in1023.0 mb 0.00 in0.0 mm 0.00 in0.0 mm 0.00 in0.0 mm
04:16 PM 65.7°F18.7°C 61.3°F16.3°C 86% Calm Calm 7.6 mph12.2 kmh 30.20 in1022.7 mb 0.00 in0.0 mm 0.00 in0.0 mm 0.00 in0.0 mm
04:31 PM 66.0°F18.9°C 62.4°F16.9°C 88% 0.2 mph SE0.3 kmh SE 4.9 mph7.9 kmh 30.20 in1022.7 mb 0.00 in0.0 mm 0.00 in0.0 mm 0.00 in0.0 mm
04:46 PM 65.8°F18.8°C 62.2°F16.8°C 88% Calm Calm 2.5 mph4.0 kmh 30.20 in1022.7 mb 0.00 in0.0 mm 0.00 in0.0 mm 0.00 in0.0 mm
05:01 PM 65.7°F18.7°C 62.1°F16.7°C 88% Calm Calm 2.5 mph4.0 kmh 30.20 in1022.7 mb 0.00 in0.0 mm 0.00 in0.0 mm 0.00 in0.0 mm
05:16 PM 65.8°F18.8°C 62.2°F16.8°C 88% 0.7 mph ESE1.1 kmh ESE 4.9 mph7.9 kmh 30.21 in1023.0 mb 0.00 in0.0 mm 0.00 in0.0 mm 0.00 in0.0 mm
05:31 PM 65.8°F18.8°C 62.2°F16.8°C 88% 1.3 mph NNE2.1 kmh NNE 2.5 mph4.0 kmh 30.21 in1023.0 mb 0.00 in0.0 mm 0.00 in0.0 mm 0.00 in0.0 mm
05:46 PM 65.8°F18.8°C 62.2°F16.8°C 88% 0.9 mph N1.4 kmh N 4.9 mph7.9 kmh 30.21 in1023.0 mb 0.00 in0.0 mm 0.00 in0.0 mm 0.00 in0.0 mm
06:01 PM 65.7°F18.7°C 62.1°F16.7°C 88% Calm Calm 4.9 mph7.9 kmh 30.21 in1023.0 mb 0.00 in0.0 mm 0.00 in0.0 mm 0.00 in0.0 mm
06:16 PM 65.5°F18.6°C 61.5°F16.4°C 87% Calm Calm 2.5 mph4.0 kmh 30.21 in1023.0 mb 0.00 in0.0 mm 0.00 in0.0 mm 0.00 in0.0 mm
06:31 PM 65.7°F18.7°C 62.1°F16.7°C 88% 0.2 mph S0.3 kmh S 2.5 mph4.0 kmh 30.22 in1023.4 mb 0.00 in0.0 mm 0.00 in0.0 mm 0.00 in0.0 mm
06:46 PM 65.7°F18.7°C 62.2°F16.8°C 89% 0.7 mph S1.1 kmh S 4.9 mph7.9 kmh 30.22 in1023.4 mb 0.00 in0.0 mm 0.00 in0.0 mm 0.00 in0.0 mm
07:01 PM 65.3°F18.5°C 62.2°F16.8°C 90% Calm Calm 2.5 mph4.0 kmh 30.22 in1023.4 mb 0.00 in0.0 mm 0.00 in0.0 mm 0.00 in0.0 mm
07:16 PM 64.9°F18.3°C 61.9°F16.6°C 90% Calm Calm -- 30.22 in1023.4 mb 0.00 in0.0 mm 0.00 in0.0 mm 0.00 in0.0 mm
07:31 PM 64.4°F18.0°C 61.7°F16.5°C 91% 2.9 mph NNW4.7 kmh NNW 4.9 mph7.9 kmh 30.22 in1023.4 mb 0.00 in0.0 mm 0.00 in0.0 mm 0.00 in0.0 mm
07:46 PM 63.5°F17.5°C 60.3°F15.7°C 89% 3.4 mph N5.5 kmh N 7.6 mph12.2 kmh 30.22 in1023.4 mb 0.00 in0.0 mm 0.00 in0.0 mm 0.00 in0.0 mm
08:01 PM 63.0°F17.2°C 59.7°F15.4°C 89% 4.5 mph N7.2 kmh N 4.9 mph7.9 kmh 30.23 in1023.7 mb 0.00 in0.0 mm 0.00 in0.0 mm 0.00 in0.0 mm
08:17 PM 62.8°F17.1°C 59.5°F15.3°C 89% 2.5 mph N4.0 kmh N 7.6 mph12.2 kmh 30.23 in1023.7 mb 0.00 in0.0 mm 0.00 in0.0 mm 0.00 in0.0 mm
08:32 PM 62.6°F17.0°C 59.4°F15.2°C 89% 3.8 mph NNW6.1 kmh NNW 7.6 mph12.2 kmh 30.23 in1023.7 mb 0.00 in0.0 mm 0.00 in0.0 mm 0.00 in0.0 mm
08:47 PM 62.8°F17.1°C 59.2°F15.1°C 88% 5.4 mph NNW8.7 kmh NNW 7.6 mph12.2 kmh 30.24 in1024.0 mb 0.00 in0.0 mm 0.00 in0.0 mm 0.00 in0.0 mm
09:02 PM 62.6°F17.0°C 59.0°F15.0°C 88% 4.5 mph NNW7.2 kmh NNW 10.1 mph16.3 kmh 30.24 in1024.0 mb 0.00 in0.0 mm 0.00 in0.0 mm 0.00 in0.0 mm
09:17 PM 62.4°F16.9°C 58.8°F14.9°C 88% 4.0 mph NNW6.4 kmh NNW 7.6 mph12.2 kmh 30.24 in1024.0 mb 0.00 in0.0 mm 0.00 in0.0 mm 0.00 in0.0 mm
09:32 PM 62.4°F16.9°C 58.5°F14.7°C 87% 4.0 mph NNW6.4 kmh NNW 10.1 mph16.3 kmh 30.24 in1024.0 mb 0.00 in0.0 mm 0.00 in0.0 mm 0.00 in0.0 mm
09:47 PM 62.6°F17.0°C 58.6°F14.8°C 87% 3.4 mph N5.5 kmh N 7.6 mph12.2 kmh 30.25 in1024.4 mb 0.00 in0.0 mm 0.00 in0.0 mm 0.00 in0.0 mm
10:02 PM 63.0°F17.2°C 58.6°F14.8°C 86% 4.5 mph N7.2 kmh N 7.6 mph12.2 kmh 30.25 in1024.4 mb 0.00 in0.0 mm 0.00 in0.0 mm 0.00 in0.0 mm
10:17 PM 63.1°F17.3°C 58.8°F14.9°C 86% 3.1 mph NNW5.0 kmh NNW 10.1 mph16.3 kmh 30.25 in1024.4 mb 0.00 in0.0 mm 0.00 in0.0 mm 0.00 in0.0 mm
10:32 PM 63.0°F17.2°C 58.6°F14.8°C 86% 5.6 mph NNW9.0 kmh NNW 10.1 mph16.3 kmh 30.25 in1024.4 mb 0.00 in0.0 mm 0.00 in0.0 mm 0.00 in0.0 mm
10:47 PM 62.4°F16.9°C 57.2°F14.0°C 83% 7.6 mph N12.2 kmh N 12.5 mph20.1 kmh 30.25 in1024.4 mb 0.00 in0.0 mm 0.00 in0.0 mm 0.00 in0.0 mm
11:02 PM 61.9°F16.6°C 55.9°F13.3°C 81% 6.0 mph N9.7 kmh N 10.1 mph16.3 kmh 30.25 in1024.4 mb 0.00 in0.0 mm 0.00 in0.0 mm 0.00 in0.0 mm
11:17 PM 61.7°F16.5°C 55.4°F13.0°C 80% 6.3 mph NNW10.1 kmh NNW 10.1 mph16.3 kmh 30.25 in1024.4 mb 0.00 in0.0 mm 0.00 in0.0 mm 0.00 in0.0 mm
11:32 PM 61.9°F16.6°C 55.6°F13.1°C 80% 4.0 mph N6.4 kmh N 10.1 mph16.3 kmh 30.25 in1024.4 mb 0.00 in0.0 mm 0.00 in0.0 mm 0.00 in0.0 mm
11:47 PM 61.5°F16.4°C 55.2°F12.9°C 80% 4.9 mph N7.9 kmh N 10.1 mph16.3 kmh 30.25 in1024.4 mb 0.00 in0.0 mm 0.00 in0.0 mm 0.00 in0.0 mm